sensor_id;sensor_type;location;lat;lon;timestamp;temperature;humidity
11538;DHT22;50159;49.426;11.182;2022-07-22T00:00:00;17.90;95.10
11538;DHT22;50159;49.426;11.182;2022-07-22T00:02:27;17.90;95.40
11538;DHT22;50159;49.426;11.182;2022-07-22T00:04:54;17.90;95.80
11538;DHT22;50159;49.426;11.182;2022-07-22T00:07:21;17.80;96.10
11538;DHT22;50159;49.426;11.182;2022-07-22T00:09:47;17.80;96.30
11538;DHT22;50159;49.426;11.182;2022-07-22T00:12:15;17.70;96.70
11538;DHT22;50159;49.426;11.182;2022-07-22T00:14:41;17.70;97.30
11538;DHT22;50159;49.426;11.182;2022-07-22T00:17:08;17.60;97.70
11538;DHT22;50159;49.426;11.182;2022-07-22T00:19:35;17.60;98.00
11538;DHT22;50159;49.426;11.182;2022-07-22T00:22:03;17.60;98.00
11538;DHT22;50159;49.426;11.182;2022-07-22T00:24:30;17.60;98.10
11538;DHT22;50159;49.426;11.182;2022-07-22T00:26:57;17.60;98.40
11538;DHT22;50159;49.426;11.182;2022-07-22T00:29:24;17.50;98.50
11538;DHT22;50159;49.426;11.182;2022-07-22T00:31:51;17.50;98.80
11538;DHT22;50159;49.426;11.182;2022-07-22T00:34:18;17.50;99.10
11538;DHT22;50159;49.426;11.182;2022-07-22T00:36:45;17.50;99.40
11538;DHT22;50159;49.426;11.182;2022-07-22T00:39:11;17.50;99.90
11538;DHT22;50159;49.426;11.182;2022-07-22T00:41:39;17.40;99.90
11538;DHT22;50159;49.426;11.182;2022-07-22T00:44:07;17.40;99.90
11538;DHT22;50159;49.426;11.182;2022-07-22T00:46:36;17.30;99.90
11538;DHT22;50159;49.426;11.182;2022-07-22T00:49:06;17.20;99.90
11538;DHT22;50159;49.426;11.182;2022-07-22T00:51:34;17.20;99.90
11538;DHT22;50159;49.426;11.182;2022-07-22T00:54:04;17.10;99.90
11538;DHT22;50159;49.426;11.182;2022-07-22T00:56:31;17.10;99.90
11538;DHT22;50159;49.426;11.182;2022-07-22T00:59:01;17.00;99.90
11538;DHT22;50159;49.426;11.182;2022-07-22T01:01:31;17.00;99.90
11538;DHT22;50159;49.426;11.182;2022-07-22T01:04:00;17.00;99.90
11538;DHT22;50159;49.426;11.182;2022-07-22T01:06:29;16.90;99.90
11538;DHT22;50159;49.426;11.182;2022-07-22T01:08:57;16.90;99.90
11538;DHT22;50159;49.426;11.182;2022-07-22T01:11:25;16.80;99.90
11538;DHT22;50159;49.426;11.182;2022-07-22T01:13:53;16.80;99.90
11538;DHT22;50159;49.426;11.182;2022-07-22T01:16:22;16.80;99.90
11538;DHT22;50159;49.426;11.182;2022-07-22T01:18:50;16.80;99.90
11538;DHT22;50159;49.426;11.182;2022-07-22T01:21:18;16.80;99.90
11538;DHT22;50159;49.426;11.182;2022-07-22T01:23:45;16.80;99.90
11538;DHT22;50159;49.426;11.182;2022-07-22T01:26:13;16.80;99.90
11538;DHT22;50159;49.426;11.182;2022-07-22T01:28:42;16.70;99.90
11538;DHT22;50159;49.426;11.182;2022-07-22T01:31:10;16.70;99.90
11538;DHT22;50159;49.426;11.182;2022-07-22T01:33:37;16.60;99.90
11538;DHT22;50159;49.426;11.182;2022-07-22T01:36:05;16.60;99.90
11538;DHT22;50159;49.426;11.182;2022-07-22T01:38:33;16.60;99.90
11538;DHT22;50159;49.426;11.182;2022-07-22T01:41:00;16.60;99.90
11538;DHT22;50159;49.426;11.182;2022-07-22T01:43:27;16.60;99.90
11538;DHT22;50159;49.426;11.182;2022-07-22T01:45:54;16.50;99.90
11538;DHT22;50159;49.426;11.182;2022-07-22T01:48:22;16.50;99.90
11538;DHT22;50159;49.426;11.182;2022-07-22T01:50:50;16.50;99.90
11538;DHT22;50159;49.426;11.182;2022-07-22T01:53:17;16.40;99.90
11538;DHT22;50159;49.426;11.182;2022-07-22T01:55:44;16.40;99.90
11538;DHT22;50159;49.426;11.182;2022-07-22T01:58:11;16.40;99.90
11538;DHT22;50159;49.426;11.182;2022-07-22T02:00:38;16.40;99.90
11538;DHT22;50159;49.426;11.182;2022-07-22T02:03:05;16.30;99.90
11538;DHT22;50159;49.426;11.182;2022-07-22T02:05:33;16.30;99.90
11538;DHT22;50159;49.426;11.182;2022-07-22T02:08:05;16.20;99.90
11538;DHT22;50159;49.426;11.182;2022-07-22T02:10:34;16.20;99.90
11538;DHT22;50159;49.426;11.182;2022-07-22T02:13:01;16.20;99.90
11538;DHT22;50159;49.426;11.182;2022-07-22T02:15:28;16.10;99.90
11538;DHT22;50159;49.426;11.182;2022-07-22T02:17:55;16.10;99.90
11538;DHT22;50159;49.426;11.182;2022-07-22T02:20:23;16.10;99.90
11538;DHT22;50159;49.426;11.182;2022-07-22T02:22:50;16.00;99.90
11538;DHT22;50159;49.426;11.182;2022-07-22T02:25:16;15.90;99.90
11538;DHT22;50159;49.426;11.182;2022-07-22T02:27:43;15.80;99.90
11538;DHT22;50159;49.426;11.182;2022-07-22T02:30:10;15.80;99.90
11538;DHT22;50159;49.426;11.182;2022-07-22T02:32:37;15.80;99.90
11538;DHT22;50159;49.426;11.182;2022-07-22T02:35:05;15.80;99.90
11538;DHT22;50159;49.426;11.182;2022-07-22T02:37:32;15.70;99.90
11538;DHT22;50159;49.426;11.182;2022-07-22T02:39:59;15.60;99.90
11538;DHT22;50159;49.426;11.182;2022-07-22T02:42:27;15.60;99.90
11538;DHT22;50159;49.426;11.182;2022-07-22T02:44:54;15.50;99.90
11538;DHT22;50159;49.426;11.182;2022-07-22T02:47:20;15.50;99.90
11538;DHT22;50159;49.426;11.182;2022-07-22T02:49:47;15.50;99.90
11538;DHT22;50159;49.426;11.182;2022-07-22T02:52:14;15.50;99.90
11538;DHT22;50159;49.426;11.182;2022-07-22T02:54:41;15.40;99.90
11538;DHT22;50159;49.426;11.182;2022-07-22T02:57:08;15.40;99.90
11538;DHT22;50159;49.426;11.182;2022-07-22T02:59:35;15.30;99.90
11538;DHT22;50159;49.426;11.182;2022-07-22T03:02:03;15.20;99.90
11538;DHT22;50159;49.426;11.182;2022-07-22T03:04:30;15.20;99.90
11538;DHT22;50159;49.426;11.182;2022-07-22T03:06:57;15.20;99.90
11538;DHT22;50159;49.426;11.182;2022-07-22T03:09:23;15.20;99.90
11538;DHT22;50159;49.426;11.182;2022-07-22T03:11:50;15.20;99.90
11538;DHT22;50159;49.426;11.182;2022-07-22T03:14:17;15.20;99.90
11538;DHT22;50159;49.426;11.182;2022-07-22T03:16:45;15.20;99.90
11538;DHT22;50159;49.426;11.182;2022-07-22T03:19:12;15.20;99.90
11538;DHT22;50159;49.426;11.182;2022-07-22T03:24:06;15.30;99.90
11538;DHT22;50159;49.426;11.182;2022-07-22T03:26:33;15.30;99.90
11538;DHT22;50159;49.426;11.182;2022-07-22T03:29:00;15.20;99.90
11538;DHT22;50159;49.426;11.182;2022-07-22T03:31:27;15.20;99.90
11538;DHT22;50159;49.426;11.182;2022-07-22T03:33:54;15.20;99.90
11538;DHT22;50159;49.426;11.182;2022-07-22T03:36:21;15.10;99.90
11538;DHT22;50159;49.426;11.182;2022-07-22T03:38:47;15.10;99.90
11538;DHT22;50159;49.426;11.182;2022-07-22T03:41:14;15.10;99.90
11538;DHT22;50159;49.426;11.182;2022-07-22T03:43:41;15.00;99.90
11538;DHT22;50159;49.426;11.182;2022-07-22T03:46:08;15.00;99.90
11538;DHT22;50159;49.426;11.182;2022-07-22T03:48:35;15.00;99.90
11538;DHT22;50159;49.426;11.182;2022-07-22T03:51:02;15.00;99.90
11538;DHT22;50159;49.426;11.182;2022-07-22T03:53:29;15.00;99.90
11538;DHT22;50159;49.426;11.182;2022-07-22T03:55:56;14.90;99.90
11538;DHT22;50159;49.426;11.182;2022-07-22T03:58:22;14.90;99.90
11538;DHT22;50159;49.426;11.182;2022-07-22T04:00:49;14.90;99.90
11538;DHT22;50159;49.426;11.182;2022-07-22T04:03:16;14.90;99.90
11538;DHT22;50159;49.426;11.182;2022-07-22T04:05:43;15.00;99.90
11538;DHT22;50159;49.426;11.182;2022-07-22T04:08:10;15.00;99.90
11538;DHT22;50159;49.426;11.182;2022-07-22T04:10:37;15.00;99.90
11538;DHT22;50159;49.426;11.182;2022-07-22T04:13:04;15.00;99.90
11538;DHT22;50159;49.426;11.182;2022-07-22T04:15:31;14.90;99.90
11538;DHT22;50159;49.426;11.182;2022-07-22T04:17:57;14.90;99.90
11538;DHT22;50159;49.426;11.182;2022-07-22T04:20:24;14.90;99.90
11538;DHT22;50159;49.426;11.182;2022-07-22T04:22:51;14.90;99.90
11538;DHT22;50159;49.426;11.182;2022-07-22T04:25:18;14.90;99.90
11538;DHT22;50159;49.426;11.182;2022-07-22T04:27:45;14.90;99.90
11538;DHT22;50159;49.426;11.182;2022-07-22T04:30:12;14.90;99.90
11538;DHT22;50159;49.426;11.182;2022-07-22T04:32:39;14.90;99.90
11538;DHT22;50159;49.426;11.182;2022-07-22T04:35:06;15.00;99.90
11538;DHT22;50159;49.426;11.182;2022-07-22T04:37:33;15.00;99.90
11538;DHT22;50159;49.426;11.182;2022-07-22T04:40:00;15.00;99.90
11538;DHT22;50159;49.426;11.182;2022-07-22T04:42:27;15.10;99.90
11538;DHT22;50159;49.426;11.182;2022-07-22T04:44:54;15.10;99.90
11538;DHT22;50159;49.426;11.182;2022-07-22T04:47:20;15.20;99.90
11538;DHT22;50159;49.426;11.182;2022-07-22T04:49:47;15.20;99.90
11538;DHT22;50159;49.426;11.182;2022-07-22T04:52:14;15.30;99.90
11538;DHT22;50159;49.426;11.182;2022-07-22T04:54:41;15.40;99.90
11538;DHT22;50159;49.426;11.182;2022-07-22T04:57:08;15.40;99.90
11538;DHT22;50159;49.426;11.182;2022-07-22T04:59:35;15.50;99.90
11538;DHT22;50159;49.426;11.182;2022-07-22T05:02:02;15.60;99.90
11538;DHT22;50159;49.426;11.182;2022-07-22T05:04:29;15.80;99.90
11538;DHT22;50159;49.426;11.182;2022-07-22T05:06:56;15.90;99.90
11538;DHT22;50159;49.426;11.182;2022-07-22T05:09:23;16.00;99.90
11538;DHT22;50159;49.426;11.182;2022-07-22T05:11:50;16.10;99.90
11538;DHT22;50159;49.426;11.182;2022-07-22T05:14:17;16.20;99.90
11538;DHT22;50159;49.426;11.182;2022-07-22T05:16:44;16.30;99.90
11538;DHT22;50159;49.426;11.182;2022-07-22T05:19:11;16.40;99.90
11538;DHT22;50159;49.426;11.182;2022-07-22T05:21:37;16.40;99.90
11538;DHT22;50159;49.426;11.182;2022-07-22T05:24:05;16.60;99.90
11538;DHT22;50159;49.426;11.182;2022-07-22T05:26:32;16.70;99.90
11538;DHT22;50159;49.426;11.182;2022-07-22T05:28:59;16.80;99.90
11538;DHT22;50159;49.426;11.182;2022-07-22T05:31:27;16.90;99.90
11538;DHT22;50159;49.426;11.182;2022-07-22T05:33:54;17.00;99.90
11538;DHT22;50159;49.426;11.182;2022-07-22T05:36:20;17.10;99.90
11538;DHT22;50159;49.426;11.182;2022-07-22T05:38:47;17.20;99.90
11538;DHT22;50159;49.426;11.182;2022-07-22T05:41:14;17.30;99.90
11538;DHT22;50159;49.426;11.182;2022-07-22T05:43:41;17.40;99.90
11538;DHT22;50159;49.426;11.182;2022-07-22T05:46:08;17.50;99.90
11538;DHT22;50159;49.426;11.182;2022-07-22T05:48:35;17.60;99.90
11538;DHT22;50159;49.426;11.182;2022-07-22T05:51:02;17.70;99.90
11538;DHT22;50159;49.426;11.182;2022-07-22T05:53:29;17.90;99.90
11538;DHT22;50159;49.426;11.182;2022-07-22T05:55:56;18.00;99.90
11538;DHT22;50159;49.426;11.182;2022-07-22T05:58:29;18.10;99.90
11538;DHT22;50159;49.426;11.182;2022-07-22T06:00:56;18.30;99.90
11538;DHT22;50159;49.426;11.182;2022-07-22T06:03:24;18.40;99.90
11538;DHT22;50159;49.426;11.182;2022-07-22T06:05:51;18.50;99.90
11538;DHT22;50159;49.426;11.182;2022-07-22T06:08:18;18.60;99.90
11538;DHT22;50159;49.426;11.182;2022-07-22T06:10:45;18.70;99.90
11538;DHT22;50159;49.426;11.182;2022-07-22T06:13:12;18.80;99.90
11538;DHT22;50159;49.426;11.182;2022-07-22T06:15:39;19.00;99.90
11538;DHT22;50159;49.426;11.182;2022-07-22T06:18:06;19.10;99.90
11538;DHT22;50159;49.426;11.182;2022-07-22T06:20:33;19.20;99.90
11538;DHT22;50159;49.426;11.182;2022-07-22T06:23:00;19.30;99.90
11538;DHT22;50159;49.426;11.182;2022-07-22T06:25:27;19.40;99.90
11538;DHT22;50159;49.426;11.182;2022-07-22T06:28:10;19.40;99.90
11538;DHT22;50159;49.426;11.182;2022-07-22T06:30:38;19.50;99.90
11538;DHT22;50159;49.426;11.182;2022-07-22T06:33:05;19.60;99.90
11538;DHT22;50159;49.426;11.182;2022-07-22T06:35:33;19.80;99.90
11538;DHT22;50159;49.426;11.182;2022-07-22T06:38:00;19.90;99.90
11538;DHT22;50159;49.426;11.182;2022-07-22T06:40:33;20.00;99.90
11538;DHT22;50159;49.426;11.182;2022-07-22T06:43:02;20.10;99.90
11538;DHT22;50159;49.426;11.182;2022-07-22T06:45:30;20.20;99.90
11538;DHT22;50159;49.426;11.182;2022-07-22T06:47:57;20.40;99.90
11538;DHT22;50159;49.426;11.182;2022-07-22T06:50:25;20.50;99.90
11538;DHT22;50159;49.426;11.182;2022-07-22T06:52:53;20.60;99.90
11538;DHT22;50159;49.426;11.182;2022-07-22T06:55:20;20.80;99.90
11538;DHT22;50159;49.426;11.182;2022-07-22T06:57:47;20.80;99.90
11538;DHT22;50159;49.426;11.182;2022-07-22T07:00:14;20.90;99.60
11538;DHT22;50159;49.426;11.182;2022-07-22T07:02:42;20.90;99.20
11538;DHT22;50159;49.426;11.182;2022-07-22T07:05:08;21.10;98.70
11538;DHT22;50159;49.426;11.182;2022-07-22T07:07:46;21.20;98.30
11538;DHT22;50159;49.426;11.182;2022-07-22T07:10:13;21.30;97.80
11538;DHT22;50159;49.426;11.182;2022-07-22T07:12:42;21.50;97.60
11538;DHT22;50159;49.426;11.182;2022-07-22T07:15:09;21.60;97.10
11538;DHT22;50159;49.426;11.182;2022-07-22T07:17:55;21.70;96.20
11538;DHT22;50159;49.426;11.182;2022-07-22T07:20:24;21.80;95.50
11538;DHT22;50159;49.426;11.182;2022-07-22T07:22:51;22.00;94.90
11538;DHT22;50159;49.426;11.182;2022-07-22T07:25:19;22.10;94.50
11538;DHT22;50159;49.426;11.182;2022-07-22T07:27:49;22.20;94.00
11538;DHT22;50159;49.426;11.182;2022-07-22T07:30:17;22.30;93.50
11538;DHT22;50159;49.426;11.182;2022-07-22T07:32:44;22.40;92.80
11538;DHT22;50159;49.426;11.182;2022-07-22T07:35:11;22.50;92.60
11538;DHT22;50159;49.426;11.182;2022-07-22T07:37:38;22.70;92.50
11538;DHT22;50159;49.426;11.182;2022-07-22T07:40:06;22.80;92.00
11538;DHT22;50159;49.426;11.182;2022-07-22T07:42:34;23.00;91.50
11538;DHT22;50159;49.426;11.182;2022-07-22T07:45:01;23.10;90.30
11538;DHT22;50159;49.426;11.182;2022-07-22T07:47:28;23.10;90.20
11538;DHT22;50159;49.426;11.182;2022-07-22T07:49:55;23.20;89.30
11538;DHT22;50159;49.426;11.182;2022-07-22T07:52:24;23.30;89.40
11538;DHT22;50159;49.426;11.182;2022-07-22T07:54:51;23.50;88.10
11538;DHT22;50159;49.426;11.182;2022-07-22T07:57:37;23.60;87.20
11538;DHT22;50159;49.426;11.182;2022-07-22T08:00:07;23.70;86.60
11538;DHT22;50159;49.426;11.182;2022-07-22T08:02:38;23.90;85.50
11538;DHT22;50159;49.426;11.182;2022-07-22T08:05:08;24.10;84.50
11538;DHT22;50159;49.426;11.182;2022-07-22T08:07:37;24.10;82.00
11538;DHT22;50159;49.426;11.182;2022-07-22T08:10:06;24.20;81.80
11538;DHT22;50159;49.426;11.182;2022-07-22T08:12:53;24.30;80.40
11538;DHT22;50159;49.426;11.182;2022-07-22T08:15:22;24.30;79.30
11538;DHT22;50159;49.426;11.182;2022-07-22T08:17:52;24.20;78.30
11538;DHT22;50159;49.426;11.182;2022-07-22T08:20:20;24.20;79.30
11538;DHT22;50159;49.426;11.182;2022-07-22T08:22:49;24.30;79.70
11538;DHT22;50159;49.426;11.182;2022-07-22T08:25:17;24.60;79.80
11538;DHT22;50159;49.426;11.182;2022-07-22T08:27:44;24.80;76.50
11538;DHT22;50159;49.426;11.182;2022-07-22T08:30:12;24.90;75.20
11538;DHT22;50159;49.426;11.182;2022-07-22T08:32:39;25.00;73.90
11538;DHT22;50159;49.426;11.182;2022-07-22T08:35:06;25.20;73.00
11538;DHT22;50159;49.426;11.182;2022-07-22T08:37:34;25.40;72.40
11538;DHT22;50159;49.426;11.182;2022-07-22T08:40:01;25.60;72.00
11538;DHT22;50159;49.426;11.182;2022-07-22T08:42:30;25.70;69.80
11538;DHT22;50159;49.426;11.182;2022-07-22T08:44:57;25.90;68.40
11538;DHT22;50159;49.426;11.182;2022-07-22T08:47:31;26.00;68.20
11538;DHT22;50159;49.426;11.182;2022-07-22T08:50:10;26.10;66.70
11538;DHT22;50159;49.426;11.182;2022-07-22T08:52:37;26.30;65.00
11538;DHT22;50159;49.426;11.182;2022-07-22T08:55:05;26.40;63.70
11538;DHT22;50159;49.426;11.182;2022-07-22T08:57:33;26.60;63.10
11538;DHT22;50159;49.426;11.182;2022-07-22T09:00:08;26.60;61.70
11538;DHT22;50159;49.426;11.182;2022-07-22T09:02:39;26.50;62.00
11538;DHT22;50159;49.426;11.182;2022-07-22T09:05:09;26.40;62.20
11538;DHT22;50159;49.426;11.182;2022-07-22T09:08:00;26.40;61.90
11538;DHT22;50159;49.426;11.182;2022-07-22T09:10:35;26.40;61.10
11538;DHT22;50159;49.426;11.182;2022-07-22T09:13:07;26.40;60.10
11538;DHT22;50159;49.426;11.182;2022-07-22T09:15:37;26.50;58.20
11538;DHT22;50159;49.426;11.182;2022-07-22T09:18:08;26.60;58.20
11538;DHT22;50159;49.426;11.182;2022-07-22T09:20:36;26.60;58.70
11538;DHT22;50159;49.426;11.182;2022-07-22T09:23:13;26.70;57.90
11538;DHT22;50159;49.426;11.182;2022-07-22T09:25:41;26.70;58.50
11538;DHT22;50159;49.426;11.182;2022-07-22T09:28:11;26.80;57.80
11538;DHT22;50159;49.426;11.182;2022-07-22T09:30:49;26.90;57.40
11538;DHT22;50159;49.426;11.182;2022-07-22T09:33:20;27.10;56.10
11538;DHT22;50159;49.426;11.182;2022-07-22T09:35:48;27.30;55.60
11538;DHT22;50159;49.426;11.182;2022-07-22T09:38:26;27.60;55.20
11538;DHT22;50159;49.426;11.182;2022-07-22T09:40:54;27.80;54.20
11538;DHT22;50159;49.426;11.182;2022-07-22T09:43:22;27.90;53.50
11538;DHT22;50159;49.426;11.182;2022-07-22T09:45:52;27.90;52.30
11538;DHT22;50159;49.426;11.182;2022-07-22T09:48:24;27.80;51.60
11538;DHT22;50159;49.426;11.182;2022-07-22T09:50:53;27.70;51.40
11538;DHT22;50159;49.426;11.182;2022-07-22T09:53:23;27.90;52.30
11538;DHT22;50159;49.426;11.182;2022-07-22T09:55:51;28.10;52.00
11538;DHT22;50159;49.426;11.182;2022-07-22T09:58:18;28.40;51.70
11538;DHT22;50159;49.426;11.182;2022-07-22T10:00:45;28.70;51.00
11538;DHT22;50159;49.426;11.182;2022-07-22T10:03:21;28.70;48.30
11538;DHT22;50159;49.426;11.182;2022-07-22T10:05:52;28.60;48.90
11538;DHT22;50159;49.426;11.182;2022-07-22T10:08:20;28.70;48.40
11538;DHT22;50159;49.426;11.182;2022-07-22T10:10:48;28.70;48.50
11538;DHT22;50159;49.426;11.182;2022-07-22T10:13:17;28.80;48.30
11538;DHT22;50159;49.426;11.182;2022-07-22T10:15:46;28.90;48.40
11538;DHT22;50159;49.426;11.182;2022-07-22T10:18:19;28.90;48.50
11538;DHT22;50159;49.426;11.182;2022-07-22T10:20:46;29.00;48.60
11538;DHT22;50159;49.426;11.182;2022-07-22T10:23:14;29.10;47.90
11538;DHT22;50159;49.426;11.182;2022-07-22T10:25:53;29.10;47.40
11538;DHT22;50159;49.426;11.182;2022-07-22T10:28:25;29.20;47.70
11538;DHT22;50159;49.426;11.182;2022-07-22T10:30:53;29.40;47.90
11538;DHT22;50159;49.426;11.182;2022-07-22T10:33:39;29.50;47.80
11538;DHT22;50159;49.426;11.182;2022-07-22T10:36:06;29.60;47.00
11538;DHT22;50159;49.426;11.182;2022-07-22T10:38:35;29.60;46.60
11538;DHT22;50159;49.426;11.182;2022-07-22T10:41:05;29.60;46.00
11538;DHT22;50159;49.426;11.182;2022-07-22T10:46:09;29.60;46.70
11538;DHT22;50159;49.426;11.182;2022-07-22T10:51:09;29.70;46.10
11538;DHT22;50159;49.426;11.182;2022-07-22T10:53:57;29.90;46.70
11538;DHT22;50159;49.426;11.182;2022-07-22T10:56:34;30.00;45.90
11538;DHT22;50159;49.426;11.182;2022-07-22T11:01:49;30.30;45.30
11538;DHT22;50159;49.426;11.182;2022-07-22T11:04:24;30.20;44.90
11538;DHT22;50159;49.426;11.182;2022-07-22T11:06:54;30.30;45.30
11538;DHT22;50159;49.426;11.182;2022-07-22T11:09:30;30.30;44.60
11538;DHT22;50159;49.426;11.182;2022-07-22T11:11:59;30.20;44.60
11538;DHT22;50159;49.426;11.182;2022-07-22T11:14:31;30.30;45.10
11538;DHT22;50159;49.426;11.182;2022-07-22T11:17:07;30.50;45.10
11538;DHT22;50159;49.426;11.182;2022-07-22T11:19:40;30.80;44.50
11538;DHT22;50159;49.426;11.182;2022-07-22T11:22:12;31.00;44.10
11538;DHT22;50159;49.426;11.182;2022-07-22T11:24:42;31.20;43.40
11538;DHT22;50159;49.426;11.182;2022-07-22T11:27:16;31.10;43.20
11538;DHT22;50159;49.426;11.182;2022-07-22T11:29:49;31.20;43.30
11538;DHT22;50159;49.426;11.182;2022-07-22T11:32:21;31.30;43.00
11538;DHT22;50159;49.426;11.182;2022-07-22T11:34:55;31.40;43.20
11538;DHT22;50159;49.426;11.182;2022-07-22T11:37:24;31.40;42.40
11538;DHT22;50159;49.426;11.182;2022-07-22T11:40:06;31.50;42.60
11538;DHT22;50159;49.426;11.182;2022-07-22T11:42:35;31.60;41.90
11538;DHT22;50159;49.426;11.182;2022-07-22T11:45:03;31.60;41.60
11538;DHT22;50159;49.426;11.182;2022-07-22T11:47:31;31.60;41.90
11538;DHT22;50159;49.426;11.182;2022-07-22T11:49:58;31.60;41.90
11538;DHT22;50159;49.426;11.182;2022-07-22T11:52:24;31.80;41.70
11538;DHT22;50159;49.426;11.182;2022-07-22T11:54:51;32.00;42.10
11538;DHT22;50159;49.426;11.182;2022-07-22T11:57:18;32.20;41.40
11538;DHT22;50159;49.426;11.182;2022-07-22T11:59:45;32.30;41.30
11538;DHT22;50159;49.426;11.182;2022-07-22T12:02:13;32.50;41.40
11538;DHT22;50159;49.426;11.182;2022-07-22T12:04:41;32.60;41.00
11538;DHT22;50159;49.426;11.182;2022-07-22T12:07:12;32.70;40.40
11538;DHT22;50159;49.426;11.182;2022-07-22T12:09:41;32.80;39.70
11538;DHT22;50159;49.426;11.182;2022-07-22T12:12:08;32.90;40.00
11538;DHT22;50159;49.426;11.182;2022-07-22T12:14:35;33.00;39.40
11538;DHT22;50159;49.426;11.182;2022-07-22T12:17:05;33.10;39.00
11538;DHT22;50159;49.426;11.182;2022-07-22T12:19:35;33.10;37.70
11538;DHT22;50159;49.426;11.182;2022-07-22T12:22:08;32.70;37.30
11538;DHT22;50159;49.426;11.182;2022-07-22T12:24:42;32.50;39.30
11538;DHT22;50159;49.426;11.182;2022-07-22T12:27:12;32.70;39.20
11538;DHT22;50159;49.426;11.182;2022-07-22T12:32:17;33.10;37.30
11538;DHT22;50159;49.426;11.182;2022-07-22T12:37:25;33.30;37.10
11538;DHT22;50159;49.426;11.182;2022-07-22T12:42:40;33.70;36.30
11538;DHT22;50159;49.426;11.182;2022-07-22T12:45:16;33.60;35.60
11538;DHT22;50159;49.426;11.182;2022-07-22T12:47:53;33.50;36.20
11538;DHT22;50159;49.426;11.182;2022-07-22T12:53:11;33.80;35.50
11538;DHT22;50159;49.426;11.182;2022-07-22T12:55:48;33.90;34.40
11538;DHT22;50159;49.426;11.182;2022-07-22T12:58:30;33.70;33.90
11538;DHT22;50159;49.426;11.182;2022-07-22T13:00:59;33.60;35.30
11538;DHT22;50159;49.426;11.182;2022-07-22T13:03:28;33.70;35.30
11538;DHT22;50159;49.426;11.182;2022-07-22T13:05:59;33.90;35.20
11538;DHT22;50159;49.426;11.182;2022-07-22T13:08:28;34.10;35.10
11538;DHT22;50159;49.426;11.182;2022-07-22T13:11:11;34.30;34.20
11538;DHT22;50159;49.426;11.182;2022-07-22T13:13:38;34.30;34.00
11538;DHT22;50159;49.426;11.182;2022-07-22T13:16:06;34.40;34.20
11538;DHT22;50159;49.426;11.182;2022-07-22T13:18:33;34.40;33.80
11538;DHT22;50159;49.426;11.182;2022-07-22T13:21:00;34.50;33.90
11538;DHT22;50159;49.426;11.182;2022-07-22T13:23:27;34.70;33.60
11538;DHT22;50159;49.426;11.182;2022-07-22T13:25:54;34.90;33.20
11538;DHT22;50159;49.426;11.182;2022-07-22T13:28:22;35.00;32.90
11538;DHT22;50159;49.426;11.182;2022-07-22T13:30:49;35.10;32.50
11538;DHT22;50159;49.426;11.182;2022-07-22T13:33:16;35.20;32.60
11538;DHT22;50159;49.426;11.182;2022-07-22T13:35:43;35.30;32.40
11538;DHT22;50159;49.426;11.182;2022-07-22T13:38:10;35.30;32.20
11538;DHT22;50159;49.426;11.182;2022-07-22T13:40:42;35.30;31.30
11538;DHT22;50159;49.426;11.182;2022-07-22T13:43:20;34.90;31.40
11538;DHT22;50159;49.426;11.182;2022-07-22T13:45:47;34.90;31.90
11538;DHT22;50159;49.426;11.182;2022-07-22T13:48:15;35.00;32.90
11538;DHT22;50159;49.426;11.182;2022-07-22T13:50:45;35.20;32.60
11538;DHT22;50159;49.426;11.182;2022-07-22T13:53:12;35.20;31.30
11538;DHT22;50159;49.426;11.182;2022-07-22T13:55:40;34.90;31.20
11538;DHT22;50159;49.426;11.182;2022-07-22T13:58:07;34.80;31.60
11538;DHT22;50159;49.426;11.182;2022-07-22T14:00:34;34.90;31.40
11538;DHT22;50159;49.426;11.182;2022-07-22T14:03:01;34.90;32.30
11538;DHT22;50159;49.426;11.182;2022-07-22T14:05:27;35.10;32.10
11538;DHT22;50159;49.426;11.182;2022-07-22T14:07:54;35.10;31.50
11538;DHT22;50159;49.426;11.182;2022-07-22T14:10:21;35.00;31.40
11538;DHT22;50159;49.426;11.182;2022-07-22T14:12:48;35.00;32.20
11538;DHT22;50159;49.426;11.182;2022-07-22T14:15:16;35.10;32.40
11538;DHT22;50159;49.426;11.182;2022-07-22T14:17:43;35.20;32.00
11538;DHT22;50159;49.426;11.182;2022-07-22T14:20:11;35.30;31.70
11538;DHT22;50159;49.426;11.182;2022-07-22T14:22:38;35.30;31.30
11538;DHT22;50159;49.426;11.182;2022-07-22T14:25:05;35.20;31.10
11538;DHT22;50159;49.426;11.182;2022-07-22T14:27:32;35.10;31.60
11538;DHT22;50159;49.426;11.182;2022-07-22T14:29:58;35.40;31.40
11538;DHT22;50159;49.426;11.182;2022-07-22T14:32:25;35.70;30.30
11538;DHT22;50159;49.426;11.182;2022-07-22T14:34:52;36.00;29.50
11538;DHT22;50159;49.426;11.182;2022-07-22T14:37:19;37.10;28.90
11538;DHT22;50159;49.426;11.182;2022-07-22T14:39:52;38.70;28.10
11538;DHT22;50159;49.426;11.182;2022-07-22T14:42:20;40.40;26.00
11538;DHT22;50159;49.426;11.182;2022-07-22T14:44:47;41.70;24.90
11538;DHT22;50159;49.426;11.182;2022-07-22T14:47:14;42.90;23.80
11538;DHT22;50159;49.426;11.182;2022-07-22T14:49:41;43.60;23.10
11538;DHT22;50159;49.426;11.182;2022-07-22T14:52:07;44.20;22.50
11538;DHT22;50159;49.426;11.182;2022-07-22T14:54:35;44.80;21.70
11538;DHT22;50159;49.426;11.182;2022-07-22T14:57:02;45.30;21.30
11538;DHT22;50159;49.426;11.182;2022-07-22T14:59:29;45.50;20.80
11538;DHT22;50159;49.426;11.182;2022-07-22T15:01:56;45.70;20.70
11538;DHT22;50159;49.426;11.182;2022-07-22T15:04:23;45.70;20.80
11538;DHT22;50159;49.426;11.182;2022-07-22T15:06:50;45.70;20.80
11538;DHT22;50159;49.426;11.182;2022-07-22T15:09:17;45.90;20.70
11538;DHT22;50159;49.426;11.182;2022-07-22T15:11:44;46.00;20.50
11538;DHT22;50159;49.426;11.182;2022-07-22T15:14:11;46.20;20.40
11538;DHT22;50159;49.426;11.182;2022-07-22T15:16:37;46.30;20.00
11538;DHT22;50159;49.426;11.182;2022-07-22T15:19:04;45.90;19.30
11538;DHT22;50159;49.426;11.182;2022-07-22T15:21:31;45.50;19.80
11538;DHT22;50159;49.426;11.182;2022-07-22T15:23:58;45.50;20.20
11538;DHT22;50159;49.426;11.182;2022-07-22T15:26:26;45.50;20.30
11538;DHT22;50159;49.426;11.182;2022-07-22T15:28:53;45.40;20.00
11538;DHT22;50159;49.426;11.182;2022-07-22T15:31:20;45.30;19.80
11538;DHT22;50159;49.426;11.182;2022-07-22T15:33:48;45.20;20.00
11538;DHT22;50159;49.426;11.182;2022-07-22T15:36:16;45.00;20.20
11538;DHT22;50159;49.426;11.182;2022-07-22T15:38:43;44.60;20.40
11538;DHT22;50159;49.426;11.182;2022-07-22T15:41:10;43.60;20.40
11538;DHT22;50159;49.426;11.182;2022-07-22T15:43:39;42.10;21.80